createdAt,value
2019-02-15T00:04:41.777Z,12.03
2019-02-15T00:10:36.775Z,13
2019-02-15T00:16:31.769Z,12.8
2019-02-15T00:22:26.805Z,12.75
2019-02-15T00:28:21.787Z,12.33
2019-02-15T00:34:16.795Z,12.77
2019-02-15T00:40:11.802Z,11.91
2019-02-15T00:46:06.797Z,12.29
2019-02-15T00:52:01.780Z,12.92
2019-02-15T00:57:56.785Z,11.92
2019-02-15T01:03:51.823Z,11.47
2019-02-15T01:09:46.805Z,11.63
2019-02-15T01:15:41.810Z,11.52
2019-02-15T01:21:36.822Z,11.18
2019-02-15T01:27:31.791Z,10.66
2019-02-15T01:33:26.825Z,10.66
2019-02-15T01:39:21.855Z,8.92
2019-02-15T01:45:16.871Z,9.12
2019-02-15T01:51:11.857Z,9.66
2019-02-15T01:57:06.859Z,10.01
2019-02-15T02:03:01.889Z,12.16
2019-02-15T02:08:56.877Z,12.15
2019-02-15T02:14:51.870Z,12.23
2019-02-15T02:20:46.846Z,11.87
2019-02-15T02:26:41.840Z,12.2
2019-02-15T02:32:36.887Z,11.24
2019-02-15T02:38:31.892Z,11.9
2019-02-15T02:44:26.862Z,10.84
2019-02-15T02:50:21.870Z,11.14
2019-02-15T02:56:16.863Z,11.5
2019-02-15T03:02:11.854Z,10.74
2019-02-15T03:08:06.896Z,11.27
2019-02-15T03:14:11.038Z,10.88
2019-02-15T03:19:56.866Z,10.87
2019-02-15T03:25:51.877Z,11.16
2019-02-15T03:31:46.908Z,10.67
2019-02-15T03:37:41.894Z,11.18
2019-02-15T03:43:36.890Z,11.18
2019-02-15T03:49:31.881Z,10.7
2019-02-15T03:55:26.900Z,12.2
2019-02-15T04:01:21.897Z,10.53
2019-02-15T04:07:16.898Z,10.37
2019-02-15T04:13:11.914Z,10.33
2019-02-15T04:19:06.926Z,9.59
2019-02-15T04:25:01.903Z,9.95
2019-02-15T04:30:56.934Z,9.63
2019-02-15T04:36:51.909Z,8.6
2019-02-15T04:42:46.915Z,9.17
2019-02-15T04:48:41.974Z,10.33
2019-02-15T04:54:36.996Z,11.27
2019-02-15T05:00:31.921Z,12.01
2019-02-15T05:06:26.970Z,10.47
2019-02-15T05:12:21.931Z,10.9
2019-02-15T05:18:16.934Z,12.5
2019-02-15T05:24:11.924Z,12.93
2019-02-15T05:30:06.955Z,19.68
2019-02-15T05:36:01.977Z,15.18
2019-02-15T05:41:56.988Z,13.68
2019-02-15T05:47:51.988Z,13.29
2019-02-15T05:53:46.959Z,15.18
2019-02-15T05:59:41.950Z,46.04
2019-02-15T06:05:36.999Z,30.74
2019-02-15T06:11:31.952Z,23.03
2019-02-15T06:17:26.950Z,24.13
2019-02-15T06:23:21.961Z,16.13
2019-02-15T06:29:16.971Z,14.98
2019-02-15T06:35:11.971Z,14.54
2019-02-15T06:41:07.000Z,13.3
2019-02-15T06:47:01.983Z,14.57
2019-02-15T06:52:56.990Z,14.56
2019-02-15T06:58:51.983Z,13.56
2019-02-15T07:04:47.100Z,15.58
2019-02-15T07:10:41.994Z,14.66
2019-02-15T07:16:37.007Z,20.01
2019-02-15T07:22:32.018Z,25.05
2019-02-15T07:28:27.014Z,21.56
2019-02-15T07:34:21.994Z,22.8
2019-02-15T07:40:17.003Z,22.5
2019-02-15T07:46:12.005Z,25.3
2019-02-15T07:52:07.076Z,25.31
2019-02-15T07:58:02.014Z,28.73
2019-02-15T08:03:57.056Z,29.53
2019-02-15T08:09:52.030Z,27.43
2019-02-15T08:15:51.676Z,25.06
2019-02-15T08:21:42.077Z,26.2
2019-02-15T08:27:37.041Z,24.78
2019-02-15T08:33:32.042Z,26.09
2019-02-15T08:39:27.037Z,35.02
2019-02-15T08:45:22.032Z,53.18
2019-02-15T08:51:17.036Z,48.55
2019-02-15T08:57:12.047Z,56.86
2019-02-15T09:03:07.077Z,50.13
2019-02-15T09:09:02.149Z,39.43
2019-02-15T09:14:57.069Z,39.58
2019-02-15T09:20:52.061Z,20.1
2019-02-15T09:26:47.071Z,52.31
2019-02-15T09:32:42.062Z,41.97
2019-02-15T09:38:37.057Z,42.49
2019-02-15T09:44:32.076Z,46.44
2019-02-15T09:50:27.116Z,57.86
2019-02-15T09:56:22.091Z,66.21
2019-02-15T10:02:17.120Z,75.42
2019-02-15T10:08:12.132Z,79.68
2019-02-15T10:14:07.139Z,87
2019-02-15T10:20:02.093Z,94.39
2019-02-15T10:25:57.093Z,113.22
2019-02-15T10:31:52.145Z,117.97
2019-02-15T10:37:47.127Z,133.12
2019-02-15T10:43:42.107Z,103.15
2019-02-15T10:49:37.111Z,97.42
2019-02-15T10:55:32.114Z,57.85
2019-02-15T11:01:27.114Z,46.63
2019-02-15T11:07:22.132Z,47.03
2019-02-15T11:13:17.115Z,45.65
2019-02-15T11:19:12.167Z,41.93
2019-02-15T11:25:07.116Z,32.88
2019-02-15T11:31:02.141Z,28.66
2019-02-15T11:36:57.156Z,22.16
2019-02-15T11:42:52.206Z,19.91
2019-02-15T11:48:47.124Z,18.06
2019-02-15T11:54:42.137Z,16.02
2019-02-15T12:00:37.167Z,14.71
2019-02-15T12:06:32.149Z,17.71
2019-02-15T12:12:27.161Z,16.71
2019-02-15T12:18:22.178Z,15.17
2019-02-15T12:24:17.157Z,13.82
2019-02-15T12:30:12.169Z,14.39
2019-02-15T12:36:07.183Z,13.37
2019-02-15T12:42:02.158Z,14.5
2019-02-15T12:47:57.205Z,13.96
2019-02-15T12:53:52.181Z,21.01
2019-02-15T12:59:47.186Z,45.63
2019-02-15T13:05:42.231Z,19.05
2019-02-15T13:11:37.197Z,14.01
2019-02-15T13:17:32.199Z,14.67
2019-02-15T13:23:27.178Z,13.29
2019-02-15T13:29:22.192Z,19.39
2019-02-15T13:35:17.231Z,17.32
2019-02-15T13:41:12.229Z,15.1
2019-02-15T13:47:07.217Z,13.11
2019-02-15T13:53:02.254Z,12.74
2019-02-15T13:58:57.230Z,11.77
2019-02-15T14:04:52.231Z,10.68
2019-02-15T14:10:47.244Z,11.09
2019-02-15T14:16:42.215Z,11.87
2019-02-15T14:22:37.278Z,10.97
2019-02-15T14:28:32.241Z,10.55
2019-02-15T14:34:27.232Z,10.97
2019-02-15T14:40:22.212Z,10.52
2019-02-15T14:46:17.279Z,11.92
2019-02-15T14:52:12.261Z,11.73
2019-02-15T14:58:07.234Z,10.34
2019-02-15T15:04:02.243Z,11.94
2019-02-15T15:09:57.261Z,11.73
2019-02-15T15:15:52.250Z,9.35
2019-02-15T15:21:47.318Z,10.44
2019-02-15T15:27:42.287Z,9.53
2019-02-15T15:33:37.271Z,6.6
2019-02-15T15:39:32.269Z,5.1
2019-02-15T15:45:27.375Z,6.22
2019-02-15T15:51:22.293Z,6.14
2019-02-15T15:57:17.295Z,6.29
2019-02-15T16:03:12.279Z,9.07
2019-02-15T16:09:07.309Z,8.04
2019-02-15T16:15:02.335Z,8.07
2019-02-15T16:20:57.311Z,9
2019-02-15T16:26:52.310Z,7.56
2019-02-15T16:32:47.321Z,8.68
2019-02-15T16:38:42.287Z,9.18
2019-02-15T16:44:37.295Z,9.45
2019-02-15T16:50:32.311Z,9.75
2019-02-15T16:56:27.316Z,9.53
2019-02-15T17:02:22.310Z,9.86
2019-02-15T17:08:17.346Z,10.48
2019-02-15T17:14:12.305Z,12.56
2019-02-15T17:20:07.325Z,9.96
2019-02-15T17:26:02.346Z,16.95
2019-02-15T17:31:57.334Z,13.58
2019-02-15T17:37:52.385Z,12.72
2019-02-15T17:43:47.385Z,12.74
2019-02-15T17:49:42.326Z,15.48
2019-02-15T17:55:37.351Z,19.63
2019-02-15T18:01:32.341Z,16.28
2019-02-15T18:07:27.355Z,12.69
2019-02-15T18:13:22.372Z,11.36
2019-02-15T18:19:17.359Z,11.53
2019-02-15T18:25:12.404Z,10.19
2019-02-15T18:31:07.422Z,8.67
2019-02-15T18:37:02.400Z,8.03
2019-02-15T18:42:57.356Z,8.87
2019-02-15T18:48:52.344Z,8.16
2019-02-15T18:54:47.378Z,8.19
2019-02-15T19:00:42.392Z,7.3
2019-02-15T19:06:37.398Z,7.15
2019-02-15T19:12:32.484Z,6.74
2019-02-15T19:18:27.382Z,6.43
2019-02-15T19:24:22.384Z,6.83
2019-02-15T19:30:17.381Z,8.86
2019-02-15T19:36:12.413Z,7.11
2019-02-15T19:42:07.423Z,7.36
2019-02-15T19:48:02.454Z,8.52
2019-02-15T19:53:58.298Z,5.69
2019-02-15T19:59:54.108Z,4.76
2019-02-15T20:05:47.404Z,23.43
2019-02-15T20:11:42.438Z,7.89
2019-02-15T20:17:37.460Z,5.9
2019-02-15T20:23:32.430Z,5.01
2019-02-15T20:29:27.444Z,5.97
2019-02-15T20:35:22.444Z,6.26
2019-02-15T20:41:17.406Z,7.28
2019-02-15T20:47:12.512Z,5.76
2019-02-15T20:53:07.461Z,7.92
2019-02-15T20:59:02.451Z,7.35
2019-02-15T21:04:57.447Z,6.2
2019-02-15T21:10:54.911Z,4.71
2019-02-15T21:16:47.454Z,6.24
2019-02-15T21:22:42.463Z,4.01
2019-02-15T21:28:37.453Z,3.75
2019-02-15T21:34:32.452Z,3.67
2019-02-15T21:40:27.479Z,4.05
2019-02-15T21:46:22.465Z,4.2
2019-02-15T21:52:17.531Z,4.04
2019-02-15T21:58:12.477Z,5.52
2019-02-15T22:04:07.500Z,5.57
2019-02-15T22:10:02.479Z,4.32
2019-02-15T22:15:57.464Z,5.03
2019-02-15T22:21:52.485Z,4.14
2019-02-15T22:27:47.501Z,4.32
2019-02-15T22:33:42.482Z,4.03
2019-02-15T22:39:37.481Z,4
2019-02-15T22:45:32.476Z,3.9
2019-02-15T22:51:27.497Z,4.85
2019-02-15T22:57:22.508Z,4.5
2019-02-15T23:03:17.490Z,4.09
2019-02-15T23:09:12.512Z,3.7
2019-02-15T23:15:07.493Z,3.24
2019-02-15T23:21:02.525Z,3.2
2019-02-15T23:26:57.509Z,8.26
2019-02-15T23:32:52.524Z,10.2
2019-02-15T23:38:47.527Z,10.83
2019-02-15T23:44:42.523Z,13.63
2019-02-15T23:50:37.525Z,16.24
2019-02-15T23:56:32.539Z,14.88
